sensor_id;sensor_type;location;lat;lon;timestamp;temperature;humidity
47174;DHT22;36730;49.036;9.094;2024-02-21T00:01:36;24.60;54.60
47174;DHT22;36730;49.036;9.094;2024-02-21T00:04:02;24.60;54.60
47174;DHT22;36730;49.036;9.094;2024-02-21T00:06:27;24.60;54.50
47174;DHT22;36730;49.036;9.094;2024-02-21T00:08:53;24.60;54.60
47174;DHT22;36730;49.036;9.094;2024-02-21T00:11:18;24.60;54.60
47174;DHT22;36730;49.036;9.094;2024-02-21T00:13:44;24.60;54.60
47174;DHT22;36730;49.036;9.094;2024-02-21T00:16:09;24.60;54.60
47174;DHT22;36730;49.036;9.094;2024-02-21T00:18:36;24.60;54.60
47174;DHT22;36730;49.036;9.094;2024-02-21T00:21:02;24.60;54.70
47174;DHT22;36730;49.036;9.094;2024-02-21T00:23:28;24.60;54.50
47174;DHT22;36730;49.036;9.094;2024-02-21T00:25:54;24.60;54.60
47174;DHT22;36730;49.036;9.094;2024-02-21T00:28:19;24.60;54.60
47174;DHT22;36730;49.036;9.094;2024-02-21T00:30:45;24.60;54.50
47174;DHT22;36730;49.036;9.094;2024-02-21T00:33:10;24.60;54.60
47174;DHT22;36730;49.036;9.094;2024-02-21T00:35:36;24.60;54.50
47174;DHT22;36730;49.036;9.094;2024-02-21T00:38:01;24.60;54.50
47174;DHT22;36730;49.036;9.094;2024-02-21T00:40:28;24.60;54.50
47174;DHT22;36730;49.036;9.094;2024-02-21T00:42:53;24.60;54.60
47174;DHT22;36730;49.036;9.094;2024-02-21T00:45:19;24.60;54.50
47174;DHT22;36730;49.036;9.094;2024-02-21T00:47:44;24.60;54.50
47174;DHT22;36730;49.036;9.094;2024-02-21T00:50:10;24.50;54.50
47174;DHT22;36730;49.036;9.094;2024-02-21T00:52:35;24.50;54.50
47174;DHT22;36730;49.036;9.094;2024-02-21T00:55:01;24.50;54.50
47174;DHT22;36730;49.036;9.094;2024-02-21T00:57:26;24.50;54.40
47174;DHT22;36730;49.036;9.094;2024-02-21T00:59:52;24.50;54.50
47174;DHT22;36730;49.036;9.094;2024-02-21T01:02:17;24.50;54.40
47174;DHT22;36730;49.036;9.094;2024-02-21T01:04:43;24.50;54.70
47174;DHT22;36730;49.036;9.094;2024-02-21T01:07:08;24.50;54.50
47174;DHT22;36730;49.036;9.094;2024-02-21T01:09:34;24.50;54.50
47174;DHT22;36730;49.036;9.094;2024-02-21T01:11:59;24.50;54.50
47174;DHT22;36730;49.036;9.094;2024-02-21T01:14:25;24.50;54.50
47174;DHT22;36730;49.036;9.094;2024-02-21T01:16:50;24.50;54.50
47174;DHT22;36730;49.036;9.094;2024-02-21T01:19:15;24.50;54.50
47174;DHT22;36730;49.036;9.094;2024-02-21T01:21:41;24.50;54.40
47174;DHT22;36730;49.036;9.094;2024-02-21T01:24:06;24.50;54.40
47174;DHT22;36730;49.036;9.094;2024-02-21T01:26:32;24.50;54.50
47174;DHT22;36730;49.036;9.094;2024-02-21T01:28:57;24.50;54.50
47174;DHT22;36730;49.036;9.094;2024-02-21T01:31:23;24.50;54.40
47174;DHT22;36730;49.036;9.094;2024-02-21T01:33:48;24.50;54.40
47174;DHT22;36730;49.036;9.094;2024-02-21T01:36:14;24.50;54.30
47174;DHT22;36730;49.036;9.094;2024-02-21T01:38:39;24.40;54.30
47174;DHT22;36730;49.036;9.094;2024-02-21T01:41:05;24.40;54.30
47174;DHT22;36730;49.036;9.094;2024-02-21T01:43:30;24.50;54.30
47174;DHT22;36730;49.036;9.094;2024-02-21T01:45:56;24.50;54.50
47174;DHT22;36730;49.036;9.094;2024-02-21T01:48:22;24.40;54.30
47174;DHT22;36730;49.036;9.094;2024-02-21T01:50:51;24.40;54.30
47174;DHT22;36730;49.036;9.094;2024-02-21T01:53:21;24.40;54.40
47174;DHT22;36730;49.036;9.094;2024-02-21T01:55:47;24.40;54.30
47174;DHT22;36730;49.036;9.094;2024-02-21T01:58:16;24.40;54.30
47174;DHT22;36730;49.036;9.094;2024-02-21T02:00:42;24.40;54.30
47174;DHT22;36730;49.036;9.094;2024-02-21T02:03:09;24.40;54.30
47174;DHT22;36730;49.036;9.094;2024-02-21T02:05:35;24.40;54.30
47174;DHT22;36730;49.036;9.094;2024-02-21T02:08:01;24.40;54.20
47174;DHT22;36730;49.036;9.094;2024-02-21T02:10:26;24.40;54.20
47174;DHT22;36730;49.036;9.094;2024-02-21T02:12:52;24.40;54.30
47174;DHT22;36730;49.036;9.094;2024-02-21T02:15:18;24.40;54.30
47174;DHT22;36730;49.036;9.094;2024-02-21T02:17:43;24.40;54.30
47174;DHT22;36730;49.036;9.094;2024-02-21T02:20:09;24.40;54.30
47174;DHT22;36730;49.036;9.094;2024-02-21T02:22:34;24.40;54.30
47174;DHT22;36730;49.036;9.094;2024-02-21T02:25:02;24.40;54.30
47174;DHT22;36730;49.036;9.094;2024-02-21T02:27:28;24.40;54.30
47174;DHT22;36730;49.036;9.094;2024-02-21T02:29:53;24.40;54.30
47174;DHT22;36730;49.036;9.094;2024-02-21T02:32:19;24.40;54.30
47174;DHT22;36730;49.036;9.094;2024-02-21T02:34:45;24.40;54.20
47174;DHT22;36730;49.036;9.094;2024-02-21T02:37:10;24.40;54.40
47174;DHT22;36730;49.036;9.094;2024-02-21T02:39:35;24.40;54.20
47174;DHT22;36730;49.036;9.094;2024-02-21T02:42:01;24.40;54.30
47174;DHT22;36730;49.036;9.094;2024-02-21T02:44:27;24.40;54.30
47174;DHT22;36730;49.036;9.094;2024-02-21T02:46:52;24.40;54.30
47174;DHT22;36730;49.036;9.094;2024-02-21T02:49:18;24.40;54.40
47174;DHT22;36730;49.036;9.094;2024-02-21T02:51:43;24.40;54.40
47174;DHT22;36730;49.036;9.094;2024-02-21T02:54:09;24.40;54.30
47174;DHT22;36730;49.036;9.094;2024-02-21T02:56:35;24.40;54.30
47174;DHT22;36730;49.036;9.094;2024-02-21T02:59:00;24.40;54.30
47174;DHT22;36730;49.036;9.094;2024-02-21T03:01:26;24.40;54.30
47174;DHT22;36730;49.036;9.094;2024-02-21T03:03:51;24.40;54.40
47174;DHT22;36730;49.036;9.094;2024-02-21T03:06:17;24.40;54.30
47174;DHT22;36730;49.036;9.094;2024-02-21T03:08:42;24.40;54.30
47174;DHT22;36730;49.036;9.094;2024-02-21T03:11:08;24.40;54.30
47174;DHT22;36730;49.036;9.094;2024-02-21T03:13:34;24.40;54.30
47174;DHT22;36730;49.036;9.094;2024-02-21T03:15:59;24.40;54.30
47174;DHT22;36730;49.036;9.094;2024-02-21T03:18:25;24.40;54.30
47174;DHT22;36730;49.036;9.094;2024-02-21T03:20:50;24.40;54.30
47174;DHT22;36730;49.036;9.094;2024-02-21T03:23:16;24.40;54.30
47174;DHT22;36730;49.036;9.094;2024-02-21T03:25:41;24.40;54.50
47174;DHT22;36730;49.036;9.094;2024-02-21T03:28:06;24.30;54.30
47174;DHT22;36730;49.036;9.094;2024-02-21T03:30:32;24.30;54.30
47174;DHT22;36730;49.036;9.094;2024-02-21T03:32:59;24.30;54.30
47174;DHT22;36730;49.036;9.094;2024-02-21T03:35:24;24.40;54.30
47174;DHT22;36730;49.036;9.094;2024-02-21T03:37:52;24.30;54.30
47174;DHT22;36730;49.036;9.094;2024-02-21T03:40:17;24.30;54.30
47174;DHT22;36730;49.036;9.094;2024-02-21T03:42:42;24.30;54.40
47174;DHT22;36730;49.036;9.094;2024-02-21T03:45:09;24.30;54.40
47174;DHT22;36730;49.036;9.094;2024-02-21T03:47:34;24.30;54.30
47174;DHT22;36730;49.036;9.094;2024-02-21T03:50:00;24.30;54.30
47174;DHT22;36730;49.036;9.094;2024-02-21T03:52:25;24.30;54.40
47174;DHT22;36730;49.036;9.094;2024-02-21T03:54:51;24.30;54.30
47174;DHT22;36730;49.036;9.094;2024-02-21T03:57:16;24.30;54.30
47174;DHT22;36730;49.036;9.094;2024-02-21T03:59:42;24.30;54.40
47174;DHT22;36730;49.036;9.094;2024-02-21T04:02:08;24.30;54.40
47174;DHT22;36730;49.036;9.094;2024-02-21T04:04:34;24.30;54.00
47174;DHT22;36730;49.036;9.094;2024-02-21T04:07:00;24.20;54.10
47174;DHT22;36730;49.036;9.094;2024-02-21T04:09:25;24.20;54.40
47174;DHT22;36730;49.036;9.094;2024-02-21T04:11:51;24.20;54.30
47174;DHT22;36730;49.036;9.094;2024-02-21T04:14:17;24.20;54.40
47174;DHT22;36730;49.036;9.094;2024-02-21T04:16:42;24.20;54.40
47174;DHT22;36730;49.036;9.094;2024-02-21T04:19:08;24.30;54.90
47174;DHT22;36730;49.036;9.094;2024-02-21T04:21:33;24.30;55.10
47174;DHT22;36730;49.036;9.094;2024-02-21T04:23:59;24.40;54.50
47174;DHT22;36730;49.036;9.094;2024-02-21T04:26:24;24.40;54.70
47174;DHT22;36730;49.036;9.094;2024-02-21T04:28:50;24.40;54.40
47174;DHT22;36730;49.036;9.094;2024-02-21T04:31:15;24.40;54.10
47174;DHT22;36730;49.036;9.094;2024-02-21T04:33:41;24.50;54.10
47174;DHT22;36730;49.036;9.094;2024-02-21T04:36:06;24.50;54.00
47174;DHT22;36730;49.036;9.094;2024-02-21T04:38:32;24.50;53.90
47174;DHT22;36730;49.036;9.094;2024-02-21T04:40:57;24.50;54.00
47174;DHT22;36730;49.036;9.094;2024-02-21T04:43:24;24.50;53.80
47174;DHT22;36730;49.036;9.094;2024-02-21T04:45:50;24.60;53.90
47174;DHT22;36730;49.036;9.094;2024-02-21T04:48:16;24.60;53.70
47174;DHT22;36730;49.036;9.094;2024-02-21T04:50:41;24.60;53.70
47174;DHT22;36730;49.036;9.094;2024-02-21T04:53:07;24.70;53.60
47174;DHT22;36730;49.036;9.094;2024-02-21T04:55:33;24.80;53.50
47174;DHT22;36730;49.036;9.094;2024-02-21T04:57:58;24.80;53.40
47174;DHT22;36730;49.036;9.094;2024-02-21T05:00:24;24.80;53.40
47174;DHT22;36730;49.036;9.094;2024-02-21T05:02:49;24.80;53.30
47174;DHT22;36730;49.036;9.094;2024-02-21T05:05:15;24.90;53.40
47174;DHT22;36730;49.036;9.094;2024-02-21T05:07:42;24.90;53.50
47174;DHT22;36730;49.036;9.094;2024-02-21T05:10:07;24.90;53.50
47174;DHT22;36730;49.036;9.094;2024-02-21T05:12:33;24.90;53.40
47174;DHT22;36730;49.036;9.094;2024-02-21T05:14:58;25.00;53.70
47174;DHT22;36730;49.036;9.094;2024-02-21T05:17:24;25.00;53.30
47174;DHT22;36730;49.036;9.094;2024-02-21T05:19:49;25.00;53.50
47174;DHT22;36730;49.036;9.094;2024-02-21T05:22:15;25.10;53.70
47174;DHT22;36730;49.036;9.094;2024-02-21T05:24:40;25.10;53.20
47174;DHT22;36730;49.036;9.094;2024-02-21T05:27:06;25.10;53.30
47174;DHT22;36730;49.036;9.094;2024-02-21T05:29:32;25.10;53.50
47174;DHT22;36730;49.036;9.094;2024-02-21T05:31:58;25.10;53.50
47174;DHT22;36730;49.036;9.094;2024-02-21T05:34:23;25.10;53.60
47174;DHT22;36730;49.036;9.094;2024-02-21T05:36:49;25.10;53.50
47174;DHT22;36730;49.036;9.094;2024-02-21T05:39:17;25.10;53.40
47174;DHT22;36730;49.036;9.094;2024-02-21T05:41:43;25.10;53.10
47174;DHT22;36730;49.036;9.094;2024-02-21T05:44:08;25.20;53.10
47174;DHT22;36730;49.036;9.094;2024-02-21T05:46:34;25.20;52.90
47174;DHT22;36730;49.036;9.094;2024-02-21T05:49:00;25.20;52.80
47174;DHT22;36730;49.036;9.094;2024-02-21T05:51:26;25.30;53.00
47174;DHT22;36730;49.036;9.094;2024-02-21T05:53:51;25.30;52.90
47174;DHT22;36730;49.036;9.094;2024-02-21T05:56:17;25.30;53.10
47174;DHT22;36730;49.036;9.094;2024-02-21T05:58:43;25.30;53.00
47174;DHT22;36730;49.036;9.094;2024-02-21T06:01:08;25.30;53.00
47174;DHT22;36730;49.036;9.094;2024-02-21T06:03:34;25.30;53.10
47174;DHT22;36730;49.036;9.094;2024-02-21T06:06:00;25.40;53.50
47174;DHT22;36730;49.036;9.094;2024-02-21T06:08:26;25.40;53.30
47174;DHT22;36730;49.036;9.094;2024-02-21T06:10:51;25.40;53.50
47174;DHT22;36730;49.036;9.094;2024-02-21T06:13:20;25.50;53.50
47174;DHT22;36730;49.036;9.094;2024-02-21T06:15:46;25.40;53.70
47174;DHT22;36730;49.036;9.094;2024-02-21T06:18:12;25.50;53.70
47174;DHT22;36730;49.036;9.094;2024-02-21T06:20:37;25.50;53.60
47174;DHT22;36730;49.036;9.094;2024-02-21T06:23:06;25.50;53.70
47174;DHT22;36730;49.036;9.094;2024-02-21T06:25:31;25.50;53.70
47174;DHT22;36730;49.036;9.094;2024-02-21T06:27:56;25.50;53.60
47174;DHT22;36730;49.036;9.094;2024-02-21T06:30:22;25.50;53.80
47174;DHT22;36730;49.036;9.094;2024-02-21T06:32:47;25.60;54.30
47174;DHT22;36730;49.036;9.094;2024-02-21T06:35:13;25.50;54.90
47174;DHT22;36730;49.036;9.094;2024-02-21T06:37:38;25.60;55.40
47174;DHT22;36730;49.036;9.094;2024-02-21T06:40:04;25.60;54.50
47174;DHT22;36730;49.036;9.094;2024-02-21T06:42:30;25.70;55.60
47174;DHT22;36730;49.036;9.094;2024-02-21T06:44:55;25.70;55.30
47174;DHT22;36730;49.036;9.094;2024-02-21T06:47:21;25.70;54.90
47174;DHT22;36730;49.036;9.094;2024-02-21T06:49:50;25.70;54.40
47174;DHT22;36730;49.036;9.094;2024-02-21T06:52:19;25.80;54.40
47174;DHT22;36730;49.036;9.094;2024-02-21T06:54:49;25.80;55.70
47174;DHT22;36730;49.036;9.094;2024-02-21T06:57:14;25.80;55.30
47174;DHT22;36730;49.036;9.094;2024-02-21T06:59:41;25.80;55.00
47174;DHT22;36730;49.036;9.094;2024-02-21T07:02:06;25.80;55.50
47174;DHT22;36730;49.036;9.094;2024-02-21T07:04:32;25.80;55.90
47174;DHT22;36730;49.036;9.094;2024-02-21T07:06:57;25.80;56.50
47174;DHT22;36730;49.036;9.094;2024-02-21T07:09:23;25.90;55.50
47174;DHT22;36730;49.036;9.094;2024-02-21T07:11:48;25.90;56.50
47174;DHT22;36730;49.036;9.094;2024-02-21T07:14:14;25.90;55.70
47174;DHT22;36730;49.036;9.094;2024-02-21T07:16:40;25.90;55.80
47174;DHT22;36730;49.036;9.094;2024-02-21T07:19:05;25.90;56.10
47174;DHT22;36730;49.036;9.094;2024-02-21T07:21:31;25.90;56.00
47174;DHT22;36730;49.036;9.094;2024-02-21T07:23:56;26.00;55.90
47174;DHT22;36730;49.036;9.094;2024-02-21T07:26:22;26.00;55.60
47174;DHT22;36730;49.036;9.094;2024-02-21T07:28:47;26.00;55.10
47174;DHT22;36730;49.036;9.094;2024-02-21T07:31:13;26.10;54.70
47174;DHT22;36730;49.036;9.094;2024-02-21T07:33:38;26.10;54.70
47174;DHT22;36730;49.036;9.094;2024-02-21T07:36:07;26.10;55.70
47174;DHT22;36730;49.036;9.094;2024-02-21T07:38:33;26.10;55.30
47174;DHT22;36730;49.036;9.094;2024-02-21T07:40:59;26.10;54.20
47174;DHT22;36730;49.036;9.094;2024-02-21T07:43:24;26.10;54.00
47174;DHT22;36730;49.036;9.094;2024-02-21T07:45:52;26.10;53.80
47174;DHT22;36730;49.036;9.094;2024-02-21T07:48:18;26.10;54.70
47174;DHT22;36730;49.036;9.094;2024-02-21T07:50:44;26.00;54.30
47174;DHT22;36730;49.036;9.094;2024-02-21T07:53:09;26.00;54.40
47174;DHT22;36730;49.036;9.094;2024-02-21T07:55:35;25.90;54.70
47174;DHT22;36730;49.036;9.094;2024-02-21T07:58:00;25.90;54.10
47174;DHT22;36730;49.036;9.094;2024-02-21T08:00:26;25.90;54.80
47174;DHT22;36730;49.036;9.094;2024-02-21T08:02:51;25.90;55.10
47174;DHT22;36730;49.036;9.094;2024-02-21T08:05:17;25.90;54.20
47174;DHT22;36730;49.036;9.094;2024-02-21T08:07:43;25.80;53.50
47174;DHT22;36730;49.036;9.094;2024-02-21T08:10:08;25.80;53.60
47174;DHT22;36730;49.036;9.094;2024-02-21T08:12:34;25.80;53.40
47174;DHT22;36730;49.036;9.094;2024-02-21T08:15:00;25.80;53.60
47174;DHT22;36730;49.036;9.094;2024-02-21T08:17:25;25.80;54.60
47174;DHT22;36730;49.036;9.094;2024-02-21T08:19:51;25.80;54.70
47174;DHT22;36730;49.036;9.094;2024-02-21T08:22:16;25.80;54.20
47174;DHT22;36730;49.036;9.094;2024-02-21T08:24:41;25.80;54.10
47174;DHT22;36730;49.036;9.094;2024-02-21T08:27:07;25.80;54.20
47174;DHT22;36730;49.036;9.094;2024-02-21T08:29:32;25.80;53.20
47174;DHT22;36730;49.036;9.094;2024-02-21T08:31:58;25.80;53.40
47174;DHT22;36730;49.036;9.094;2024-02-21T08:34:23;25.80;53.70
47174;DHT22;36730;49.036;9.094;2024-02-21T08:36:49;25.80;52.50
47174;DHT22;36730;49.036;9.094;2024-02-21T08:39:15;25.80;52.90
47174;DHT22;36730;49.036;9.094;2024-02-21T08:41:43;25.70;52.70
47174;DHT22;36730;49.036;9.094;2024-02-21T08:44:09;25.70;52.20
47174;DHT22;36730;49.036;9.094;2024-02-21T08:46:34;25.70;52.50
47174;DHT22;36730;49.036;9.094;2024-02-21T08:49:00;25.70;53.90
47174;DHT22;36730;49.036;9.094;2024-02-21T08:51:25;25.70;52.50
47174;DHT22;36730;49.036;9.094;2024-02-21T08:53:51;25.80;52.50
47174;DHT22;36730;49.036;9.094;2024-02-21T08:56:18;25.80;52.90
47174;DHT22;36730;49.036;9.094;2024-02-21T08:58:44;25.70;52.90
47174;DHT22;36730;49.036;9.094;2024-02-21T09:01:10;25.70;52.10
47174;DHT22;36730;49.036;9.094;2024-02-21T09:03:38;25.70;52.20
47174;DHT22;36730;49.036;9.094;2024-02-21T09:06:05;25.70;52.00
47174;DHT22;36730;49.036;9.094;2024-02-21T09:08:30;25.70;52.80
47174;DHT22;36730;49.036;9.094;2024-02-21T09:10:56;25.70;52.10
47174;DHT22;36730;49.036;9.094;2024-02-21T09:13:21;25.70;52.90
47174;DHT22;36730;49.036;9.094;2024-02-21T09:15:47;25.70;52.10
47174;DHT22;36730;49.036;9.094;2024-02-21T09:18:14;25.70;52.30
47174;DHT22;36730;49.036;9.094;2024-02-21T09:20:39;25.70;52.30
47174;DHT22;36730;49.036;9.094;2024-02-21T09:23:05;25.70;52.00
47174;DHT22;36730;49.036;9.094;2024-02-21T09:25:30;25.70;52.40
47174;DHT22;36730;49.036;9.094;2024-02-21T09:27:57;25.70;52.30
47174;DHT22;36730;49.036;9.094;2024-02-21T09:30:23;25.80;52.30
47174;DHT22;36730;49.036;9.094;2024-02-21T09:32:49;25.70;52.10
47174;DHT22;36730;49.036;9.094;2024-02-21T09:35:15;25.70;53.10
47174;DHT22;36730;49.036;9.094;2024-02-21T09:37:40;25.80;52.40
47174;DHT22;36730;49.036;9.094;2024-02-21T09:40:06;25.80;53.10
47174;DHT22;36730;49.036;9.094;2024-02-21T09:42:41;25.80;52.30
47174;DHT22;36730;49.036;9.094;2024-02-21T09:50:28;25.90;51.90
47174;DHT22;36730;49.036;9.094;2024-02-21T09:52:54;25.80;52.50
47174;DHT22;36730;49.036;9.094;2024-02-21T09:55:20;25.90;52.50
47174;DHT22;36730;49.036;9.094;2024-02-21T09:57:46;25.90;52.60
47174;DHT22;36730;49.036;9.094;2024-02-21T10:00:12;25.90;52.50
47174;DHT22;36730;49.036;9.094;2024-02-21T10:02:41;25.90;52.40
47174;DHT22;36730;49.036;9.094;2024-02-21T10:05:06;26.00;52.20
47174;DHT22;36730;49.036;9.094;2024-02-21T10:07:33;26.00;51.90
47174;DHT22;36730;49.036;9.094;2024-02-21T10:10:05;26.00;51.90
47174;DHT22;36730;49.036;9.094;2024-02-21T10:12:31;26.00;51.90
47174;DHT22;36730;49.036;9.094;2024-02-21T10:15:00;26.00;52.10
47174;DHT22;36730;49.036;9.094;2024-02-21T10:17:25;26.00;52.40
47174;DHT22;36730;49.036;9.094;2024-02-21T10:19:51;26.00;52.20
47174;DHT22;36730;49.036;9.094;2024-02-21T10:22:17;26.00;51.90
47174;DHT22;36730;49.036;9.094;2024-02-21T10:24:43;26.00;51.90
47174;DHT22;36730;49.036;9.094;2024-02-21T10:27:09;26.10;51.80
47174;DHT22;36730;49.036;9.094;2024-02-21T10:29:36;26.10;52.50
47174;DHT22;36730;49.036;9.094;2024-02-21T10:34:31;26.10;52.00
47174;DHT22;36730;49.036;9.094;2024-02-21T10:37:02;26.10;52.00
47174;DHT22;36730;49.036;9.094;2024-02-21T10:39:29;26.20;51.90
47174;DHT22;36730;49.036;9.094;2024-02-21T10:41:55;26.20;51.90
47174;DHT22;36730;49.036;9.094;2024-02-21T10:44:22;26.20;51.60
47174;DHT22;36730;49.036;9.094;2024-02-21T10:46:48;26.20;52.10
47174;DHT22;36730;49.036;9.094;2024-02-21T10:49:16;26.20;51.90
47174;DHT22;36730;49.036;9.094;2024-02-21T10:51:46;26.20;51.50
47174;DHT22;36730;49.036;9.094;2024-02-21T10:56:56;26.30;51.40
47174;DHT22;36730;49.036;9.094;2024-02-21T10:59:22;26.30;52.00
47174;DHT22;36730;49.036;9.094;2024-02-21T11:01:50;26.30;51.90
47174;DHT22;36730;49.036;9.094;2024-02-21T11:04:17;26.30;51.80
47174;DHT22;36730;49.036;9.094;2024-02-21T11:06:43;26.30;51.90
47174;DHT22;36730;49.036;9.094;2024-02-21T11:09:09;26.30;51.90
47174;DHT22;36730;49.036;9.094;2024-02-21T11:11:36;26.30;51.40
47174;DHT22;36730;49.036;9.094;2024-02-21T11:14:09;26.40;51.70
47174;DHT22;36730;49.036;9.094;2024-02-21T11:16:38;26.40;51.60
47174;DHT22;36730;49.036;9.094;2024-02-21T11:19:05;26.40;51.60
47174;DHT22;36730;49.036;9.094;2024-02-21T11:21:34;26.40;51.70
47174;DHT22;36730;49.036;9.094;2024-02-21T11:24:01;26.50;51.60
47174;DHT22;36730;49.036;9.094;2024-02-21T11:26:28;26.50;51.80
47174;DHT22;36730;49.036;9.094;2024-02-21T11:31:22;26.50;52.20
47174;DHT22;36730;49.036;9.094;2024-02-21T11:33:48;26.50;51.50
47174;DHT22;36730;49.036;9.094;2024-02-21T11:36:35;26.50;51.70
47174;DHT22;36730;49.036;9.094;2024-02-21T11:39:03;26.50;51.30
47174;DHT22;36730;49.036;9.094;2024-02-21T11:41:29;26.60;51.20
47174;DHT22;36730;49.036;9.094;2024-02-21T11:43:55;26.60;50.90
47174;DHT22;36730;49.036;9.094;2024-02-21T11:46:21;26.60;51.30
47174;DHT22;36730;49.036;9.094;2024-02-21T11:48:46;26.60;51.30
47174;DHT22;36730;49.036;9.094;2024-02-21T11:51:24;26.60;51.00
47174;DHT22;36730;49.036;9.094;2024-02-21T11:53:51;26.70;51.00
47174;DHT22;36730;49.036;9.094;2024-02-21T11:56:16;26.60;51.30
47174;DHT22;36730;49.036;9.094;2024-02-21T11:58:42;26.60;50.60
47174;DHT22;36730;49.036;9.094;2024-02-21T12:01:08;26.70;50.60
47174;DHT22;36730;49.036;9.094;2024-02-21T12:03:33;26.60;50.40
47174;DHT22;36730;49.036;9.094;2024-02-21T12:06:02;26.70;50.50
47174;DHT22;36730;49.036;9.094;2024-02-21T12:08:40;26.70;52.20
47174;DHT22;36730;49.036;9.094;2024-02-21T12:11:15;26.70;51.60
47174;DHT22;36730;49.036;9.094;2024-02-21T12:13:41;26.70;51.00
47174;DHT22;36730;49.036;9.094;2024-02-21T12:16:06;26.70;50.40
47174;DHT22;36730;49.036;9.094;2024-02-21T12:18:32;26.80;50.40
47174;DHT22;36730;49.036;9.094;2024-02-21T12:20:58;26.70;50.10
47174;DHT22;36730;49.036;9.094;2024-02-21T12:23:26;26.80;50.30
47174;DHT22;36730;49.036;9.094;2024-02-21T12:25:51;26.80;50.30
47174;DHT22;36730;49.036;9.094;2024-02-21T12:28:19;26.80;50.30
47174;DHT22;36730;49.036;9.094;2024-02-21T12:30:45;26.80;50.10
47174;DHT22;36730;49.036;9.094;2024-02-21T12:33:10;26.80;50.20
47174;DHT22;36730;49.036;9.094;2024-02-21T12:35:36;26.80;50.60
47174;DHT22;36730;49.036;9.094;2024-02-21T12:38:01;26.90;50.20
47174;DHT22;36730;49.036;9.094;2024-02-21T12:40:27;26.90;50.40
47174;DHT22;36730;49.036;9.094;2024-02-21T12:42:59;26.90;50.10
47174;DHT22;36730;49.036;9.094;2024-02-21T12:45:24;26.90;50.20
47174;DHT22;36730;49.036;9.094;2024-02-21T12:47:50;26.90;50.20
47174;DHT22;36730;49.036;9.094;2024-02-21T12:50:15;26.90;49.90
47174;DHT22;36730;49.036;9.094;2024-02-21T12:52:41;26.90;49.80
47174;DHT22;36730;49.036;9.094;2024-02-21T12:55:06;26.90;49.60
47174;DHT22;36730;49.036;9.094;2024-02-21T12:57:32;26.90;49.90
47174;DHT22;36730;49.036;9.094;2024-02-21T12:59:57;26.90;50.00
47174;DHT22;36730;49.036;9.094;2024-02-21T13:02:23;26.90;49.70
47174;DHT22;36730;49.036;9.094;2024-02-21T13:04:48;26.90;49.70
47174;DHT22;36730;49.036;9.094;2024-02-21T13:07:14;26.90;49.50
47174;DHT22;36730;49.036;9.094;2024-02-21T13:09:39;26.90;49.50
47174;DHT22;36730;49.036;9.094;2024-02-21T13:12:05;26.90;50.00
47174;DHT22;36730;49.036;9.094;2024-02-21T13:14:31;27.00;49.80
47174;DHT22;36730;49.036;9.094;2024-02-21T13:16:58;27.00;49.90
47174;DHT22;36730;49.036;9.094;2024-02-21T13:19:23;27.00;50.40
47174;DHT22;36730;49.036;9.094;2024-02-21T13:21:49;27.00;49.80
47174;DHT22;36730;49.036;9.094;2024-02-21T13:24:14;27.00;50.30
47174;DHT22;36730;49.036;9.094;2024-02-21T13:26:40;27.00;49.40
47174;DHT22;36730;49.036;9.094;2024-02-21T13:29:05;27.00;49.60
47174;DHT22;36730;49.036;9.094;2024-02-21T13:31:31;27.00;50.40
47174;DHT22;36730;49.036;9.094;2024-02-21T13:33:56;27.00;49.60
47174;DHT22;36730;49.036;9.094;2024-02-21T13:36:22;27.00;49.70
47174;DHT22;36730;49.036;9.094;2024-02-21T13:38:47;27.00;49.80
47174;DHT22;36730;49.036;9.094;2024-02-21T13:41:13;27.00;49.40
47174;DHT22;36730;49.036;9.094;2024-02-21T13:43:38;27.00;49.40
47174;DHT22;36730;49.036;9.094;2024-02-21T13:46:04;27.00;49.30
47174;DHT22;36730;49.036;9.094;2024-02-21T13:48:31;27.00;49.20
47174;DHT22;36730;49.036;9.094;2024-02-21T13:50:58;27.00;49.60
47174;DHT22;36730;49.036;9.094;2024-02-21T13:53:24;27.00;49.10
47174;DHT22;36730;49.036;9.094;2024-02-21T13:55:49;27.00;49.50
47174;DHT22;36730;49.036;9.094;2024-02-21T13:58:15;27.00;49.70
47174;DHT22;36730;49.036;9.094;2024-02-21T14:00:41;26.90;48.30
47174;DHT22;36730;49.036;9.094;2024-02-21T14:03:06;26.90;45.90
47174;DHT22;36730;49.036;9.094;2024-02-21T14:05:32;26.70;45.70
47174;DHT22;36730;49.036;9.094;2024-02-21T14:07:57;26.70;47.90
47174;DHT22;36730;49.036;9.094;2024-02-21T14:10:23;26.70;48.10
47174;DHT22;36730;49.036;9.094;2024-02-21T14:12:48;26.70;48.70
47174;DHT22;36730;49.036;9.094;2024-02-21T14:15:14;26.70;48.50
47174;DHT22;36730;49.036;9.094;2024-02-21T14:17:40;26.70;48.10
47174;DHT22;36730;49.036;9.094;2024-02-21T14:20:08;26.80;48.10
47174;DHT22;36730;49.036;9.094;2024-02-21T14:22:34;26.80;48.00
47174;DHT22;36730;49.036;9.094;2024-02-21T14:25:00;26.80;47.80
47174;DHT22;36730;49.036;9.094;2024-02-21T14:27:25;26.80;47.80
47174;DHT22;36730;49.036;9.094;2024-02-21T14:29:51;26.80;48.10
47174;DHT22;36730;49.036;9.094;2024-02-21T14:32:16;26.80;47.90
47174;DHT22;36730;49.036;9.094;2024-02-21T14:34:42;26.80;47.90
47174;DHT22;36730;49.036;9.094;2024-02-21T14:37:08;26.80;47.80
47174;DHT22;36730;49.036;9.094;2024-02-21T14:39:33;26.80;48.00
47174;DHT22;36730;49.036;9.094;2024-02-21T14:42:00;26.80;47.90
47174;DHT22;36730;49.036;9.094;2024-02-21T14:44:26;26.80;48.00
47174;DHT22;36730;49.036;9.094;2024-02-21T14:46:52;26.80;48.80
47174;DHT22;36730;49.036;9.094;2024-02-21T14:49:18;26.80;48.70
47174;DHT22;36730;49.036;9.094;2024-02-21T14:51:44;26.70;48.30
47174;DHT22;36730;49.036;9.094;2024-02-21T14:54:10;26.70;47.60
47174;DHT22;36730;49.036;9.094;2024-02-21T14:56:35;26.70;47.70
47174;DHT22;36730;49.036;9.094;2024-02-21T14:59:01;26.60;48.60
47174;DHT22;36730;49.036;9.094;2024-02-21T15:01:27;26.60;48.80
47174;DHT22;36730;49.036;9.094;2024-02-21T15:03:52;26.60;48.80
47174;DHT22;36730;49.036;9.094;2024-02-21T15:06:18;26.60;48.70
47174;DHT22;36730;49.036;9.094;2024-02-21T15:08:43;26.60;48.50
47174;DHT22;36730;49.036;9.094;2024-02-21T15:11:09;26.60;48.40
47174;DHT22;36730;49.036;9.094;2024-02-21T15:13:34;26.60;48.30
47174;DHT22;36730;49.036;9.094;2024-02-21T15:16:00;26.60;48.50
47174;DHT22;36730;49.036;9.094;2024-02-21T15:18:25;26.60;48.40
47174;DHT22;36730;49.036;9.094;2024-02-21T15:20:51;26.70;48.50
47174;DHT22;36730;49.036;9.094;2024-02-21T15:23:16;26.60;48.60
47174;DHT22;36730;49.036;9.094;2024-02-21T15:25:43;26.60;48.40
47174;DHT22;36730;49.036;9.094;2024-02-21T15:28:09;26.60;48.00
47174;DHT22;36730;49.036;9.094;2024-02-21T15:30:35;26.60;48.10
47174;DHT22;36730;49.036;9.094;2024-02-21T15:33:01;26.60;48.10
47174;DHT22;36730;49.036;9.094;2024-02-21T15:35:27;26.60;48.10